Time;durP1;ratioP1;P1;durP2;ratioP2;P2;SDS_P1;SDS_P2;PMS_P1;PMS_P2;Temp;Humidity;BMP_temperature;BMP_pressure;BME280_temperature;BME280_humidity;BME280_pressure;Samples;Min_cycle;Max_cycle;Signal;HPM_P1;HPM_P2
2024/03/09 00:00:16;;;;;;;9.18;5.97;;;;;;;;;;13101730;22;20565;-73
2024/03/09 00:05:20;;;;;;;9.90;5.95;;;;;;;;;;13121637;22;20616;-73
2024/03/09 00:10:24;;;;;;;9.45;6.00;;;;;;;;;;13120851;22;20712;-73
2024/03/09 00:15:29;;;;;;;9.73;6.22;;;;;;;;;;13120804;22;20015;-73
2024/03/09 00:20:34;;;;;;;9.10;6.43;;;;;;;;;;13119736;22;20027;-73
2024/03/09 00:25:40;;;;;;;9.53;5.77;;;;;;;;;;13119964;22;20537;-73
2024/03/09 00:30:44;;;;;;;9.77;6.60;;;;;;;;;;13119503;22;20026;-73
2024/03/09 00:35:48;;;;;;;9.73;6.22;;;;;;;;;;13102149;22;20038;-73
2024/03/09 00:40:51;;;;;;;12.20;7.50;;;;;;;;;;13119004;22;20023;-73
2024/03/09 00:45:56;;;;;;;9.77;6.72;;;;;;;;;;13118525;22;20019;-73
2024/03/09 00:50:59;;;;;;;9.65;6.38;;;;;;;;;;13117689;22;20026;-73
2024/03/09 00:56:05;;;;;;;11.10;6.75;;;;;;;;;;13117824;22;20022;-73
2024/03/09 01:01:09;;;;;;;9.90;6.77;;;;;;;;;;13116341;22;20057;-73
2024/03/09 01:06:13;;;;;;;9.23;5.93;;;;;;;;;;13116599;22;20042;-73
2024/03/09 01:11:17;;;;;;;8.18;5.47;;;;;;;;;;13116010;22;20130;-73
2024/03/09 01:16:22;;;;;;;8.88;6.45;;;;;;;;;;13073502;22;20041;-73
2024/03/09 01:21:28;;;;;;;13.15;7.00;;;;;;;;;;13114584;22;20045;-73
2024/03/09 01:26:31;;;;;;;;;;;;;;;;;;13115730;22;20046;-73
2024/03/09 01:31:38;;;;;;;8.15;5.82;;;;;;;;;;13114520;22;19986;-73
2024/03/09 01:36:44;;;;;;;9.85;5.50;;;;;;;;;;13114597;22;20015;-73
2024/03/09 01:41:47;;;;;;;10.18;6.22;;;;;;;;;;13113170;22;20521;-73
2024/03/09 01:46:53;;;;;;;10.27;6.07;;;;;;;;;;13113829;22;20109;-73
2024/03/09 01:51:57;;;;;;;8.60;5.57;;;;;;;;;;13100216;22;20057;-74
2024/03/09 01:57:00;;;;;;;12.40;7.03;;;;;;;;;;13100676;22;20015;-73
2024/03/09 02:02:06;;;;;;;12.35;6.65;;;;;;;;;;13112230;22;20049;-73
2024/03/09 02:07:10;;;;;;;10.25;6.57;;;;;;;;;;13072706;22;20072;-73
2024/03/09 02:12:16;;;;;;;9.50;5.65;;;;;;;;;;13075213;22;20581;-73
2024/03/09 02:17:22;;;;;;;12.60;6.43;;;;;;;;;;13115405;22;20022;-73
2024/03/09 02:22:27;;;;;;;9.63;5.70;;;;;;;;;;13115099;22;20022;-73
2024/03/09 02:27:31;;;;;;;8.77;5.65;;;;;;;;;;13114721;22;20025;-73
2024/03/09 02:32:35;;;;;;;8.95;5.95;;;;;;;;;;13114076;22;20398;-73
2024/03/09 02:37:38;;;;;;;9.10;6.00;;;;;;;;;;13113883;22;20047;-73
2024/03/09 02:43:04;;;;;;;9.95;6.68;;;;;;;;;;13112997;22;20022;-73
2024/03/09 02:48:08;;;;;;;11.65;7.15;;;;;;;;;;13108226;22;20022;-73
2024/03/09 02:53:11;;;;;;;8.15;5.78;;;;;;;;;;13107712;22;20027;-73
2024/03/09 02:58:17;;;;;;;8.93;6.28;;;;;;;;;;13075393;22;20093;-73
2024/03/09 03:08:41;;;;;;;11.73;6.20;;;;;;;;;;13101984;22;20415;-73
2024/03/09 03:13:46;;;;;;;10.63;6.85;;;;;;;;;;13107335;22;20029;-73
2024/03/09 03:18:50;;;;;;;9.77;6.50;;;;;;;;;;13106501;22;20014;-73
2024/03/09 03:23:53;;;;;;;10.77;6.65;;;;;;;;;;13106089;22;20090;-73
2024/03/09 03:29:01;;;;;;;9.73;6.53;;;;;;;;;;13101415;22;20130;-73
2024/03/09 03:34:07;;;;;;;8.80;6.03;;;;;;;;;;13103548;22;20027;-74
2024/03/09 03:39:12;;;;;;;7.55;5.22;;;;;;;;;;13098771;22;20382;-73
2024/03/09 03:44:17;;;;;;;8.57;5.93;;;;;;;;;;13103532;22;20030;-73
2024/03/09 03:49:20;;;;;;;10.18;6.22;;;;;;;;;;13103068;22;20467;-73
2024/03/09 03:54:24;;;;;;;8.35;5.28;;;;;;;;;;13103629;22;20125;-73
2024/03/09 03:59:29;;;;;;;7.75;5.28;;;;;;;;;;13103452;22;20035;-73
2024/03/09 04:04:34;;;;;;;8.00;5.75;;;;;;;;;;13102896;22;20081;-73
2024/03/09 04:09:39;;;;;;;7.93;5.60;;;;;;;;;;13102580;22;20428;-73
2024/03/09 04:14:47;;;;;;;11.00;6.47;;;;;;;;;;13101706;22;20038;-74
2024/03/09 04:19:50;;;;;;;10.50;5.97;;;;;;;;;;13099930;22;20026;-73
2024/03/09 04:24:54;;;;;;;9.77;6.35;;;;;;;;;;13123026;22;20046;-73
2024/03/09 04:29:59;;;;;;;8.55;6.03;;;;;;;;;;13121595;22;20531;-74
2024/03/09 04:35:05;;;;;;;9.13;5.40;;;;;;;;;;13073415;22;20075;-73
2024/03/09 04:40:15;;;;;;;8.85;5.47;;;;;;;;;;13121898;22;20010;-73
2024/03/09 04:45:22;;;;;;;8.05;5.22;;;;;;;;;;13120528;22;20411;-73
2024/03/09 04:50:26;;;;;;;8.25;5.60;;;;;;;;;;13119370;22;20049;-73
2024/03/09 04:55:30;;;;;;;8.02;5.35;;;;;;;;;;13120067;22;20064;-73
2024/03/09 05:00:35;;;;;;;9.43;5.45;;;;;;;;;;13118934;22;20554;-73
2024/03/09 05:05:39;;;;;;;8.25;5.28;;;;;;;;;;13120053;22;20051;-73
2024/03/09 05:10:43;;;;;;;8.60;5.38;;;;;;;;;;13118364;22;20489;-73
2024/03/09 05:15:50;;;;;;;11.73;6.10;;;;;;;;;;13099020;22;20019;-73
2024/03/09 05:20:53;;;;;;;9.35;5.85;;;;;;;;;;13072399;22;20165;-73
2024/03/09 05:25:56;;;;;;;9.32;5.70;;;;;;;;;;13073419;22;20382;-73
2024/03/09 05:31:02;;;;;;;8.25;5.55;;;;;;;;;;13116734;22;20105;-73
2024/03/09 05:36:06;;;;;;;8.70;5.50;;;;;;;;;;13101496;22;20026;-73
2024/03/09 05:41:09;;;;;;;7.88;4.95;;;;;;;;;;13100611;22;20027;-73
2024/03/09 05:46:16;;;;;;;9.65;6.72;;;;;;;;;;13073227;22;20098;-73
2024/03/09 05:51:20;;;;;;;9.13;6.50;;;;;;;;;;13114688;22;20402;-73
2024/03/09 05:56:24;;;;;;;11.07;6.90;;;;;;;;;;13115411;22;20046;-73
2024/03/09 06:01:29;;;;;;;10.32;6.78;;;;;;;;;;13114343;22;20058;-73
2024/03/09 06:06:33;;;;;;;9.83;6.80;;;;;;;;;;13114160;22;20027;-73
2024/03/09 06:11:36;;;;;;;9.50;6.28;;;;;;;;;;13099939;22;20049;-73
2024/03/09 06:16:41;;;;;;;10.07;6.88;;;;;;;;;;13071933;22;20678;-73
2024/03/09 06:21:44;;;;;;;9.40;6.22;;;;;;;;;;13098068;22;20022;-73
2024/03/09 06:26:47;;;;;;;9.52;6.63;;;;;;;;;;13100435;22;20094;-73
2024/03/09 06:31:52;;;;;;;10.88;6.45;;;;;;;;;;13099619;22;20109;-73
2024/03/09 06:36:56;;;;;;;9.98;5.78;;;;;;;;;;13098595;22;20477;-73
2024/03/09 06:41:59;;;;;;;9.05;6.22;;;;;;;;;;13071864;22;20550;-74
2024/03/09 06:47:04;;;;;;;9.77;6.40;;;;;;;;;;13101076;22;20022;-73
2024/03/09 06:52:08;;;;;;;10.10;6.03;;;;;;;;;;13111075;22;20019;-73
2024/03/09 06:57:11;;;;;;;8.77;5.65;;;;;;;;;;13112133;22;20077;-73
2024/03/09 07:02:17;;;;;;;7.97;5.47;;;;;;;;;;13113763;22;20046;-74
2024/03/09 07:07:20;;;;;;;8.40;5.43;;;;;;;;;;13112908;22;20027;-73
2024/03/09 07:12:24;;;;;;;10.30;6.13;;;;;;;;;;13112840;22;20468;-73
2024/03/09 07:17:28;;;;;;;10.50;6.35;;;;;;;;;;13112413;22;20031;-73
2024/03/09 07:22:32;;;;;;;8.93;5.85;;;;;;;;;;13111881;22;20034;-73
2024/03/09 07:27:35;;;;;;;9.52;6.03;;;;;;;;;;13110809;22;20030;-73
2024/03/09 07:32:43;;;;;;;8.02;5.57;;;;;;;;;;13101807;22;20101;-73
2024/03/09 07:37:47;;;;;;;9.02;5.95;;;;;;;;;;13110639;22;20493;-73
2024/03/09 07:42:53;;;;;;;9.68;6.20;;;;;;;;;;13110895;22;20084;-73
2024/03/09 07:47:58;;;;;;;11.10;6.45;;;;;;;;;;13110481;22;20043;-73
2024/03/09 07:53:05;;;;;;;9.35;6.30;;;;;;;;;;13109836;22;20038;-74
2024/03/09 07:58:10;;;;;;;9.15;6.40;;;;;;;;;;13109216;22;20164;-74
2024/03/09 08:03:17;;;;;;;10.67;7.10;;;;;;;;;;13108380;22;20033;-73
2024/03/09 08:08:21;;;;;;;9.68;6.25;;;;;;;;;;13106603;22;20019;-74
2024/03/09 08:13:25;;;;;;;10.23;6.85;;;;;;;;;;13105267;22;20031;-73
2024/03/09 08:18:29;;;;;;;10.23;5.85;;;;;;;;;;13107195;22;20031;-73
2024/03/09 08:23:33;;;;;;;8.55;5.78;;;;;;;;;;13103522;22;20102;-73
2024/03/09 08:28:38;;;;;;;9.00;6.53;;;;;;;;;;13099860;22;20029;-73
2024/03/09 08:33:43;;;;;;;10.57;6.90;;;;;;;;;;13105218;22;20461;-74
2024/03/09 08:38:50;;;;;;;9.93;6.65;;;;;;;;;;13104641;22;20049;-73
2024/03/09 08:43:53;;;;;;;8.98;5.88;;;;;;;;;;13105200;22;20105;-73
2024/03/09 08:48:58;;;;;;;8.30;5.93;;;;;;;;;;13102357;22;20260;-73
2024/03/09 08:54:01;;;;;;;9.32;6.20;;;;;;;;;;13104652;22;20481;-73
2024/03/09 08:59:04;;;;;;;8.70;5.57;;;;;;;;;;13099195;22;20110;-73
2024/03/09 09:04:09;;;;;;;8.75;6.05;;;;;;;;;;13104569;22;20388;-74
2024/03/09 09:09:24;;;;;;;8.60;5.70;;;;;;;;;;13102125;22;20039;-73
2024/03/09 09:14:28;;;;;;;7.93;6.30;;;;;;;;;;13101898;22;20050;-73
2024/03/09 09:19:32;;;;;;;8.60;6.20;;;;;;;;;;13072818;22;20101;-74
2024/03/09 09:24:36;;;;;;;8.40;5.18;;;;;;;;;;13102482;22;20410;-73
2024/03/09 09:29:39;;;;;;;7.57;5.55;;;;;;;;;;13100472;22;20023;-74
2024/03/09 09:34:44;;;;;;;11.15;7.75;;;;;;;;;;13100339;22;20027;-73
2024/03/09 09:39:49;;;;;;;13.70;9.00;;;;;;;;;;13101174;22;20113;-73
2024/03/09 09:44:53;;;;;;;9.65;7.00;;;;;;;;;;13099302;22;20567;-73
2024/03/09 09:49:58;;;;;;;12.80;9.18;;;;;;;;;;13116971;22;20026;-73
2024/03/09 09:55:01;;;;;;;13.95;8.85;;;;;;;;;;13119943;22;20014;-73
2024/03/09 10:00:06;;;;;;;11.82;8.38;;;;;;;;;;13095509;22;20085;-73
2024/03/09 10:05:17;;;;;;;9.73;7.18;;;;;;;;;;13095290;22;20356;-73
2024/03/09 10:10:21;;;;;;;9.90;7.18;;;;;;;;;;13098679;22;20443;-73
2024/03/09 10:15:24;;;;;;;10.35;7.13;;;;;;;;;;13118019;22;20109;-73
2024/03/09 10:20:32;;;;;;;7.70;5.68;;;;;;;;;;13098795;22;20038;-73
2024/03/09 10:25:37;;;;;;;12.10;6.80;;;;;;;;;;13117862;22;20026;-73
2024/03/09 10:30:40;;;;;;;7.55;5.78;;;;;;;;;;13094544;22;20042;-73
2024/03/09 10:35:46;;;;;;;6.35;4.47;;;;;;;;;;13104242;22;20023;-74
2024/03/09 10:40:52;;;;;;;9.65;6.55;;;;;;;;;;13118881;22;20030;-74
2024/03/09 10:45:59;;;;;;;7.68;5.15;;;;;;;;;;13103859;22;20041;-73
2024/03/09 10:51:19;;;;;;;9.57;6.60;;;;;;;;;;13119020;22;20334;-73
2024/03/09 10:56:24;;;;;;;7.35;5.43;;;;;;;;;;13104074;22;20068;-73
2024/03/09 11:01:27;;;;;;;7.95;5.93;;;;;;;;;;13117590;22;20067;-74
2024/03/09 11:06:34;;;;;;;8.57;5.82;;;;;;;;;;13103819;22;20026;-73
2024/03/09 11:11:37;;;;;;;9.65;6.55;;;;;;;;;;13117228;22;20073;-73
2024/03/09 11:16:41;;;;;;;10.15;5.90;;;;;;;;;;13102700;22;20409;-73
2024/03/09 11:21:51;;;;;;;9.65;5.80;;;;;;;;;;13101142;22;20102;-73
2024/03/09 11:26:58;;;;;;;8.40;5.47;;;;;;;;;;13075716;22;20029;-73
2024/03/09 11:32:05;;;;;;;9.30;6.03;;;;;;;;;;13113825;22;20308;-73
2024/03/09 11:37:13;;;;;;;6.95;4.68;;;;;;;;;;13114959;22;20076;-73
2024/03/09 11:42:18;;;;;;;8.50;5.72;;;;;;;;;;13114622;22;20068;-73
2024/03/09 11:47:21;;;;;;;7.67;5.30;;;;;;;;;;13103347;22;20539;-74
2024/03/09 11:52:29;;;;;;;6.43;4.65;;;;;;;;;;13113421;22;20046;-73
2024/03/09 11:57:38;;;;;;;8.88;6.15;;;;;;;;;;13111086;22;20461;-73
2024/03/09 12:02:41;;;;;;;7.43;5.03;;;;;;;;;;13110371;22;20023;-73
2024/03/09 12:07:47;;;;;;;6.00;4.55;;;;;;;;;;13109408;22;20027;-73
2024/03/09 12:12:53;;;;;;;6.85;4.43;;;;;;;;;;13110899;22;20026;-73
2024/03/09 12:17:58;;;;;;;9.35;6.30;;;;;;;;;;13109982;22;20505;-73
2024/03/09 12:23:03;;;;;;;8.60;5.68;;;;;;;;;;13102273;22;20102;-73
2024/03/09 12:28:06;;;;;;;8.48;5.85;;;;;;;;;;13110082;22;20026;-73
2024/03/09 12:33:11;;;;;;;8.55;5.75;;;;;;;;;;13101627;22;20525;-73
2024/03/09 12:38:16;;;;;;;10.85;5.10;;;;;;;;;;13102930;22;20224;-73
2024/03/09 12:43:20;;;;;;;8.02;5.15;;;;;;;;;;13074944;22;20205;-73
2024/03/09 12:48:24;;;;;;;7.70;4.70;;;;;;;;;;13109160;22;20026;-73
2024/03/09 12:53:29;;;;;;;8.30;5.55;;;;;;;;;;13101984;22;20019;-73
2024/03/09 12:58:33;;;;;;;5.90;3.67;;;;;;;;;;13106925;22;20529;-73
2024/03/09 13:03:36;;;;;;;6.13;4.57;;;;;;;;;;13105869;22;20082;-74
2024/03/09 13:08:43;;;;;;;6.80;4.40;;;;;;;;;;13099750;22;20529;-73
2024/03/09 13:13:46;;;;;;;5.88;3.58;;;;;;;;;;13106260;22;20018;-73
2024/03/09 13:18:52;;;;;;;9.15;5.65;;;;;;;;;;13105638;22;20393;-73
2024/03/09 13:23:58;;;;;;;6.03;4.35;;;;;;;;;;13100957;22;20049;-73
2024/03/09 13:29:01;;;;;;;6.43;4.03;;;;;;;;;;13103199;22;20030;-73
2024/03/09 13:34:12;;;;;;;5.40;3.70;;;;;;;;;;13104527;22;20359;-73
2024/03/09 13:39:17;;;;;;;4.28;3.13;;;;;;;;;;13104076;22;20046;-73
2024/03/09 13:44:23;;;;;;;4.45;3.20;;;;;;;;;;13102919;22;20659;-73
2024/03/09 13:49:28;;;;;;;;;;;;;;;;;;13101766;22;20050;-73
2024/03/09 13:54:33;;;;;;;5.20;3.30;;;;;;;;;;13101514;22;19926;-73
2024/03/09 13:59:36;;;;;;;6.13;3.42;;;;;;;;;;13101908;22;20418;-73
2024/03/09 14:04:40;;;;;;;4.18;3.42;;;;;;;;;;13101327;22;20545;-73
2024/03/09 14:09:49;;;;;;;7.63;4.35;;;;;;;;;;13076582;22;20405;-73
2024/03/09 14:14:54;;;;;;;5.00;2.90;;;;;;;;;;13102240;22;20015;-73
2024/03/09 14:20:01;;;;;;;7.32;5.28;;;;;;;;;;13075447;22;20025;-73
2024/03/09 14:25:14;;;;;;;10.85;5.95;;;;;;;;;;13125119;22;20050;-73
2024/03/09 14:30:24;;;;;;;6.38;4.57;;;;;;;;;;13124332;22;20541;-73
2024/03/09 14:35:32;;;;;;;6.25;3.97;;;;;;;;;;13076931;22;20038;-74
2024/03/09 14:40:36;;;;;;;6.25;4.07;;;;;;;;;;13122612;22;20030;-73
2024/03/09 14:45:40;;;;;;;5.97;4.47;;;;;;;;;;13123005;22;20026;-73
2024/03/09 14:50:43;;;;;;;6.82;4.50;;;;;;;;;;13121368;22;20097;-73
2024/03/09 14:55:49;;;;;;;8.02;4.80;;;;;;;;;;13121312;22;20047;-73
2024/03/09 15:00:54;;;;;;;6.22;4.38;;;;;;;;;;13120497;22;20072;-73
2024/03/09 15:05:58;;;;;;;8.52;6.05;;;;;;;;;;13104051;22;20053;-73
2024/03/09 15:11:14;;;;;;;7.68;4.97;;;;;;;;;;13104043;22;20029;-73
2024/03/09 15:16:22;;;;;;;8.55;5.18;;;;;;;;;;13103925;22;20034;-73
2024/03/09 15:21:26;;;;;;;7.28;4.95;;;;;;;;;;13118280;22;20026;-73
2024/03/09 15:26:34;;;;;;;11.20;6.95;;;;;;;;;;13075499;22;20046;-73
2024/03/09 15:31:38;;;;;;;9.20;5.80;;;;;;;;;;13117331;22;20453;-73
2024/03/09 15:36:41;;;;;;;7.30;4.47;;;;;;;;;;13117440;22;20397;-73
2024/03/09 15:41:45;;;;;;;5.90;3.85;;;;;;;;;;13114483;22;20106;-73
2024/03/09 15:46:49;;;;;;;5.25;3.70;;;;;;;;;;13103858;22;20027;-73
2024/03/09 15:51:53;;;;;;;7.35;4.82;;;;;;;;;;13116834;22;20034;-73
2024/03/09 15:56:58;;;;;;;9.00;5.88;;;;;;;;;;13104427;22;20023;-73
2024/03/09 16:02:01;;;;;;;7.97;5.47;;;;;;;;;;13115394;22;20084;-73
2024/03/09 16:07:05;;;;;;;8.48;5.32;;;;;;;;;;13116044;22;20042;-73
2024/03/09 16:12:10;;;;;;;10.43;5.95;;;;;;;;;;13115376;22;20413;-73
2024/03/09 16:17:16;;;;;;;7.95;5.22;;;;;;;;;;13104096;22;20026;-73
2024/03/09 16:22:22;;;;;;;8.10;6.00;;;;;;;;;;13113277;22;20026;-73
2024/03/09 16:27:27;;;;;;;8.23;5.33;;;;;;;;;;13102511;22;20601;-73
2024/03/09 16:32:30;;;;;;;8.50;5.10;;;;;;;;;;13102331;22;20023;-73
2024/03/09 16:37:33;;;;;;;7.28;4.70;;;;;;;;;;13113631;22;20057;-73
2024/03/09 16:42:42;;;;;;;7.03;5.05;;;;;;;;;;13112577;22;20026;-73
2024/03/09 16:47:45;;;;;;;6.00;3.85;;;;;;;;;;13112631;22;20038;-73
2024/03/09 16:52:50;;;;;;;6.88;4.70;;;;;;;;;;13104390;22;20023;-73
2024/03/09 16:57:59;;;;;;;7.10;4.38;;;;;;;;;;13111958;22;20018;-73
2024/03/09 17:03:05;;;;;;;6.45;4.18;;;;;;;;;;13110983;22;20019;-73
2024/03/09 17:08:09;;;;;;;7.03;4.72;;;;;;;;;;13110699;22;20022;-73
2024/03/09 17:13:14;;;;;;;6.22;3.40;;;;;;;;;;13110046;22;20027;-73
2024/03/09 17:18:20;;;;;;;5.68;3.97;;;;;;;;;;13108245;22;20011;-73
2024/03/09 17:23:27;;;;;;;9.85;6.43;;;;;;;;;;13109003;22;20023;-74
2024/03/09 17:28:34;;;;;;;7.82;4.90;;;;;;;;;;13107454;22;20029;-73
2024/03/09 17:33:37;;;;;;;9.15;5.15;;;;;;;;;;13108166;22;20581;-73
2024/03/09 17:38:41;;;;;;;6.20;4.10;;;;;;;;;;13108346;22;20023;-73
2024/03/09 17:43:46;;;;;;;7.45;4.78;;;;;;;;;;13071913;22;20038;-73
2024/03/09 17:48:50;;;;;;;7.05;4.90;;;;;;;;;;13106810;22;20023;-73
2024/03/09 17:53:53;;;;;;;7.82;4.72;;;;;;;;;;13106600;22;20038;-73
2024/03/09 17:58:58;;;;;;;7.55;5.10;;;;;;;;;;13106220;22;20477;-73
2024/03/09 18:04:03;;;;;;;11.25;6.97;;;;;;;;;;13105544;22;20019;-73
2024/03/09 18:09:07;;;;;;;8.50;6.40;;;;;;;;;;13101723;22;20102;-73
2024/03/09 18:14:12;;;;;;;8.75;6.30;;;;;;;;;;13105703;22;20025;-73
2024/03/09 18:19:19;;;;;;;8.52;5.65;;;;;;;;;;13099724;22;20068;-73
2024/03/09 18:24:23;;;;;;;8.30;6.07;;;;;;;;;;13103397;22;20084;-73
2024/03/09 18:29:28;;;;;;;9.75;6.47;;;;;;;;;;13101259;22;20022;-73
2024/03/09 18:34:32;;;;;;;7.38;4.90;;;;;;;;;;13102266;22;20025;-73
2024/03/09 18:39:35;;;;;;;7.40;5.05;;;;;;;;;;13102136;22;20026;-73
2024/03/09 18:44:40;;;;;;;6.38;4.60;;;;;;;;;;13101996;22;20053;-73
2024/03/09 18:49:45;;;;;;;7.10;4.88;;;;;;;;;;13101920;22;20057;-73
2024/03/09 18:54:50;;;;;;;8.00;5.45;;;;;;;;;;13102200;22;20593;-73
2024/03/09 18:59:54;;;;;;;7.93;5.13;;;;;;;;;;13104738;22;20462;-73
2024/03/09 19:04:58;;;;;;;8.15;5.13;;;;;;;;;;13125460;22;20011;-73
2024/03/09 19:10:01;;;;;;;6.00;4.60;;;;;;;;;;13125546;22;20592;-73
2024/03/09 19:15:10;;;;;;;6.97;5.25;;;;;;;;;;13126486;22;20014;-73
2024/03/09 19:20:16;;;;;;;6.53;4.95;;;;;;;;;;13124602;22;20432;-73
2024/03/09 19:25:21;;;;;;;7.57;5.13;;;;;;;;;;13124905;22;20022;-73
2024/03/09 19:30:28;;;;;;;7.35;4.80;;;;;;;;;;13123598;22;20484;-73
2024/03/09 19:35:32;;;;;;;7.20;5.10;;;;;;;;;;13077386;22;20677;-73
2024/03/09 19:40:36;;;;;;;7.47;5.35;;;;;;;;;;13104159;22;20388;-73
2024/03/09 19:45:41;;;;;;;9.52;6.25;;;;;;;;;;13122281;22;20039;-73
2024/03/09 19:50:44;;;;;;;7.47;5.40;;;;;;;;;;13122429;22;20027;-73
2024/03/09 19:55:47;;;;;;;9.00;6.07;;;;;;;;;;13122099;22;20102;-73
2024/03/09 20:00:54;;;;;;;11.55;6.85;;;;;;;;;;13103879;22;20019;-73
2024/03/09 20:05:57;;;;;;;11.27;7.00;;;;;;;;;;13121852;22;20105;-73
2024/03/09 20:11:05;;;;;;;15.85;8.60;;;;;;;;;;13104141;22;20537;-73
2024/03/09 20:16:10;;;;;;;16.90;8.82;;;;;;;;;;13104067;22;20446;-74
2024/03/09 20:21:13;;;;;;;14.20;8.43;;;;;;;;;;13119687;22;20058;-73
2024/03/09 20:26:16;;;;;;;14.88;8.93;;;;;;;;;;13120376;22;20053;-73
2024/03/09 20:31:21;;;;;;;12.15;8.10;;;;;;;;;;13104607;22;20076;-73
2024/03/09 20:36:25;;;;;;;11.90;7.88;;;;;;;;;;13118849;22;20034;-73
2024/03/09 20:41:28;;;;;;;9.77;6.22;;;;;;;;;;13118625;22;20046;-73
2024/03/09 20:46:33;;;;;;;8.07;4.93;;;;;;;;;;13118717;22;20023;-73
2024/03/09 20:51:40;;;;;;;6.28;4.43;;;;;;;;;;13117303;22;20110;-73
2024/03/09 20:56:43;;;;;;;8.15;5.22;;;;;;;;;;13117245;22;20088;-73
2024/03/09 21:01:48;;;;;;;7.45;5.15;;;;;;;;;;13103714;22;20049;-73
2024/03/09 21:06:51;;;;;;;9.50;5.55;;;;;;;;;;13102882;22;20046;-73
2024/03/09 21:11:54;;;;;;;7.13;4.72;;;;;;;;;;13116387;22;20075;-73
2024/03/09 21:16:59;;;;;;;6.85;5.30;;;;;;;;;;13116136;22;20449;-73
2024/03/09 21:22:06;;;;;;;7.03;4.93;;;;;;;;;;13116091;22;20056;-73
2024/03/09 21:27:10;;;;;;;10.80;5.93;;;;;;;;;;13104581;22;20458;-73
2024/03/09 21:32:15;;;;;;;8.65;5.57;;;;;;;;;;13075555;22;20110;-73
2024/03/09 21:37:20;;;;;;;9.70;5.78;;;;;;;;;;13114355;22;20015;-73
2024/03/09 21:42:27;;;;;;;7.63;5.35;;;;;;;;;;13114145;22;20476;-73
2024/03/09 21:47:32;;;;;;;10.50;6.68;;;;;;;;;;13101192;22;20680;-73
2024/03/09 21:52:36;;;;;;;13.05;8.50;;;;;;;;;;13109920;22;20023;-73
2024/03/09 21:57:40;;;;;;;16.80;10.35;;;;;;;;;;13110414;22;20118;-73
2024/03/09 22:02:44;;;;;;;15.75;11.00;;;;;;;;;;13101354;22;20110;-73
2024/03/09 22:07:48;;;;;;;14.75;10.02;;;;;;;;;;13110057;22;20038;-73
2024/03/09 22:12:54;;;;;;;11.85;8.10;;;;;;;;;;13100347;22;20023;-73
2024/03/09 22:17:58;;;;;;;11.68;7.63;;;;;;;;;;13073107;22;20026;-73
2024/03/09 22:23:04;;;;;;;10.70;7.03;;;;;;;;;;13109750;22;20015;-73
2024/03/09 22:28:08;;;;;;;11.43;6.88;;;;;;;;;;13103286;22;20557;-73
2024/03/09 22:33:13;;;;;;;11.70;7.60;;;;;;;;;;13112674;22;20054;-73
2024/03/09 22:38:17;;;;;;;12.50;8.23;;;;;;;;;;13103202;22;20097;-73
2024/03/09 22:43:21;;;;;;;11.25;7.70;;;;;;;;;;13111801;22;20123;-73
2024/03/09 22:48:30;;;;;;;9.80;6.88;;;;;;;;;;13104033;22;20019;-73
2024/03/09 22:53:33;;;;;;;11.45;6.95;;;;;;;;;;13104869;22;20029;-73
2024/03/09 22:58:36;;;;;;;10.93;6.57;;;;;;;;;;13109525;22;20018;-73
2024/03/09 23:03:41;;;;;;;9.73;6.57;;;;;;;;;;13109882;22;20023;-73
2024/03/09 23:08:45;;;;;;;11.95;7.97;;;;;;;;;;13109024;22;20113;-73
2024/03/09 23:13:48;;;;;;;11.48;7.68;;;;;;;;;;13107089;22;20030;-73
2024/03/09 23:18:53;;;;;;;15.32;8.60;;;;;;;;;;13106872;22;20072;-73
2024/03/09 23:23:56;;;;;;;16.98;9.30;;;;;;;;;;13107957;22;20078;-73
2024/03/09 23:29:00;;;;;;;15.07;8.93;;;;;;;;;;13106547;22;20046;-73
2024/03/09 23:34:04;;;;;;;13.20;8.95;;;;;;;;;;13106818;22;20079;-73
2024/03/09 23:39:09;;;;;;;10.30;7.13;;;;;;;;;;13106001;22;20118;-73
2024/03/09 23:44:12;;;;;;;13.63;8.93;;;;;;;;;;13107091;22;20114;-73
2024/03/09 23:49:17;;;;;;;17.65;10.38;;;;;;;;;;13106010;22;20061;-73
2024/03/09 23:54:20;;;;;;;14.95;9.50;;;;;;;;;;13105907;22;20046;-73
2024/03/09 23:59:23;;;;;;;12.30;8.25;;;;;;;;;;13105089;22;20019;-73
